createdAt,value
2023-05-08T00:00:38.841Z,34.43
2023-05-08T00:03:05.785Z,34.50
2023-05-08T00:05:32.802Z,34.54
2023-05-08T00:08:02.689Z,34.53
2023-05-08T00:10:29.774Z,34.65
2023-05-08T00:12:56.891Z,34.65
2023-05-08T00:15:23.891Z,34.82
2023-05-08T00:17:50.789Z,34.81
2023-05-08T00:20:17.792Z,34.80
2023-05-08T00:22:44.748Z,34.80
2023-05-08T00:25:11.625Z,34.78
2023-05-08T00:27:38.740Z,34.92
2023-05-08T00:30:07.616Z,34.83
2023-05-08T00:32:34.615Z,34.87
2023-05-08T00:35:01.548Z,34.87
2023-05-08T00:37:28.486Z,34.90
2023-05-08T00:39:55.559Z,34.91
2023-05-08T00:42:22.490Z,35.00
2023-05-08T00:44:49.756Z,35.11
2023-05-08T00:47:16.703Z,35.04
2023-05-08T00:49:43.757Z,35.08
2023-05-08T00:52:12.243Z,35.11
2023-05-08T00:54:39.207Z,35.19
2023-05-08T00:57:07.166Z,35.15
2023-05-08T00:59:35.273Z,34.96
2023-05-08T01:02:02.219Z,34.99
2023-05-08T01:04:29.249Z,35.07
2023-05-08T01:06:56.085Z,35.11
2023-05-08T01:09:23.122Z,35.06
2023-05-08T01:11:57.033Z,35.07
2023-05-08T01:14:36.243Z,35.08
2023-05-08T01:17:19.290Z,35.06
2023-05-08T01:19:58.103Z,35.02
2023-05-08T01:22:39.625Z,35.18
2023-05-08T01:25:12.816Z,35.30
2023-05-08T01:27:56.750Z,35.40
2023-05-08T01:30:32.710Z,35.55
2023-05-08T01:33:03.405Z,35.51
2023-05-08T01:35:52.305Z,35.46
2023-05-08T01:38:25.444Z,35.53
2023-05-08T01:41:09.628Z,35.68
2023-05-08T01:44:02.952Z,35.82
2023-05-08T01:46:29.891Z,35.87
2023-05-08T01:49:01.287Z,35.83
2023-05-08T01:51:29.263Z,36.43
2023-05-08T01:53:58.062Z,37.21
2023-05-08T01:56:25.007Z,36.35
2023-05-08T01:58:53.106Z,36.13
2023-05-08T02:01:23.204Z,36.10
2023-05-08T02:03:50.482Z,36.07
2023-05-08T02:06:20.385Z,35.94
2023-05-08T02:08:47.444Z,36.05
2023-05-08T02:11:15.104Z,36.06
2023-05-08T02:13:42.002Z,36.04
2023-05-08T02:16:09.345Z,35.96
2023-05-08T02:18:36.468Z,36.19
2023-05-08T02:21:04.487Z,36.30
2023-05-08T02:23:31.514Z,36.26
2023-05-08T02:25:58.468Z,36.16
2023-05-08T02:28:25.380Z,36.09
2023-05-08T02:30:52.457Z,36.16
2023-05-08T02:33:19.395Z,36.14
2023-05-08T02:35:47.036Z,36.21
2023-05-08T02:38:14.029Z,35.90
2023-05-08T02:40:47.629Z,36.00
2023-05-08T02:43:14.593Z,36.08
2023-05-08T02:46:15.282Z,36.06
2023-05-08T02:49:07.523Z,35.95
2023-05-08T02:51:37.543Z,35.95
2023-05-08T02:54:11.170Z,36.02
2023-05-08T02:56:42.165Z,36.05
2023-05-08T02:59:17.119Z,36.03
2023-05-08T03:01:59.319Z,36.12
2023-05-08T03:04:38.070Z,36.06
2023-05-08T03:07:04.941Z,36.11
2023-05-08T03:09:45.705Z,36.10
2023-05-08T03:12:16.021Z,36.19
2023-05-08T03:15:07.315Z,36.26
2023-05-08T03:17:36.118Z,36.26
2023-05-08T03:20:06.009Z,36.27
2023-05-08T03:22:33.739Z,36.25
2023-05-08T03:25:01.552Z,36.31
2023-05-08T03:27:29.103Z,36.39
2023-05-08T03:29:56.068Z,36.39
2023-05-08T03:32:26.663Z,36.40
2023-05-08T03:34:54.481Z,36.28
2023-05-08T03:37:21.718Z,36.25
2023-05-08T03:39:48.876Z,36.34
2023-05-08T03:42:21.503Z,36.33
2023-05-08T03:44:52.201Z,36.41
2023-05-08T03:47:19.455Z,36.43
2023-05-08T03:49:47.213Z,36.45
2023-05-08T03:52:14.580Z,36.27
2023-05-08T03:54:41.800Z,36.17
2023-05-08T03:57:09.101Z,36.11
2023-05-08T04:00:04.291Z,36.04
2023-05-08T04:02:47.662Z,35.95
2023-05-08T04:05:45.386Z,35.95
2023-05-08T04:08:34.588Z,36.07
2023-05-08T04:11:10.289Z,36.04
2023-05-08T04:13:39.486Z,35.97
2023-05-08T04:16:10.123Z,35.92
2023-05-08T04:18:38.818Z,35.68
2023-05-08T04:21:10.118Z,35.54
2023-05-08T04:23:37.688Z,35.57
2023-05-08T04:26:05.665Z,35.45
2023-05-08T04:28:33.707Z,35.54
2023-05-08T04:31:00.559Z,35.37
2023-05-08T04:33:28.228Z,35.25
2023-05-08T04:35:55.464Z,35.27
2023-05-08T04:38:22.629Z,35.30
2023-05-08T04:40:49.667Z,35.18
2023-05-08T04:43:16.728Z,35.06
2023-05-08T04:45:43.945Z,34.98
2023-05-08T04:48:10.932Z,35.07
2023-05-08T04:50:38.086Z,35.10
2023-05-08T04:53:05.041Z,34.99
2023-05-08T04:55:32.063Z,34.87
2023-05-08T04:57:59.250Z,35.02
2023-05-08T05:00:26.198Z,35.13
2023-05-08T05:02:53.316Z,35.01
2023-05-08T05:05:21.144Z,35.05
2023-05-08T05:07:48.285Z,35.12
2023-05-08T05:10:15.972Z,35.14
2023-05-08T05:12:42.954Z,35.26
2023-05-08T05:15:10.742Z,35.35
2023-05-08T05:17:38.162Z,35.50
2023-05-08T05:20:08.845Z,35.59
2023-05-08T05:22:35.945Z,35.55
2023-05-08T05:25:02.906Z,35.70
2023-05-08T05:27:29.918Z,35.82
2023-05-08T05:29:57.696Z,35.89
2023-05-08T05:32:25.383Z,35.95
2023-05-08T05:34:54.055Z,35.87
2023-05-08T05:37:22.132Z,36.03
2023-05-08T05:39:49.081Z,35.95
2023-05-08T05:42:16.203Z,35.59
2023-05-08T05:44:43.402Z,35.43
2023-05-08T05:47:10.879Z,35.46
2023-05-08T05:49:39.912Z,35.51
2023-05-08T05:52:07.123Z,35.57
2023-05-08T05:54:34.277Z,35.68
2023-05-08T05:57:01.532Z,35.74
2023-05-08T05:59:28.489Z,35.64
2023-05-08T06:01:55.642Z,35.69
2023-05-08T06:04:22.513Z,35.72
2023-05-08T06:06:49.842Z,35.50
2023-05-08T06:09:17.210Z,35.38
2023-05-08T06:11:44.259Z,35.37
2023-05-08T06:14:11.333Z,35.31
2023-05-08T06:16:38.675Z,35.18
2023-05-08T06:19:05.888Z,35.02
2023-05-08T06:21:33.079Z,34.84
2023-05-08T06:24:00.035Z,34.56
2023-05-08T06:26:27.115Z,34.37
2023-05-08T06:28:53.975Z,34.34
2023-05-08T06:31:21.058Z,34.38
2023-05-08T06:33:48.145Z,34.35
2023-05-08T06:36:15.094Z,34.09
2023-05-08T06:38:41.986Z,33.95
2023-05-08T06:41:09.106Z,33.92
2023-05-08T06:43:36.132Z,33.67
2023-05-08T06:46:04.007Z,33.26
2023-05-08T06:48:31.105Z,32.86
2023-05-08T06:50:58.710Z,32.73
2023-05-08T06:53:25.940Z,32.45
2023-05-08T06:55:53.002Z,31.98
2023-05-08T06:58:19.859Z,31.08
2023-05-08T07:00:46.806Z,30.08
2023-05-08T07:03:13.935Z,29.50
2023-05-08T07:05:41.021Z,28.88
2023-05-08T07:08:08.031Z,27.99
2023-05-08T07:10:35.178Z,26.07
2023-05-08T07:13:02.497Z,24.68
2023-05-08T07:15:32.101Z,23.52
2023-05-08T07:17:59.272Z,22.14
2023-05-08T07:20:26.355Z,20.89
2023-05-08T07:22:53.329Z,19.53
2023-05-08T07:25:20.254Z,18.35
2023-05-08T07:27:47.559Z,17.11
2023-05-08T07:30:14.984Z,16.23
2023-05-08T07:32:41.989Z,15.42
2023-05-08T07:35:11.622Z,14.64
2023-05-08T07:37:41.690Z,14.45
2023-05-08T07:40:09.228Z,14.25
2023-05-08T07:42:42.305Z,13.48
2023-05-08T07:45:10.491Z,13.09
2023-05-08T07:47:38.698Z,12.71
2023-05-08T07:50:06.425Z,12.51
2023-05-08T07:52:33.632Z,12.20
2023-05-08T07:55:00.674Z,11.99
2023-05-08T07:57:27.712Z,12.50
2023-05-08T07:59:55.374Z,13.62
2023-05-08T08:02:22.873Z,14.65
2023-05-08T08:04:49.955Z,15.79
2023-05-08T08:07:16.872Z,16.83
2023-05-08T08:09:43.880Z,18.06
2023-05-08T08:12:11.565Z,18.98
2023-05-08T08:14:38.520Z,19.45
2023-05-08T08:17:05.855Z,20.15
2023-05-08T08:19:32.871Z,20.95
2023-05-08T08:21:59.885Z,21.33
2023-05-08T08:24:26.935Z,21.46
2023-05-08T08:26:53.987Z,21.97
2023-05-08T08:29:20.876Z,22.59
2023-05-08T08:31:47.700Z,22.91
2023-05-08T08:34:14.745Z,23.14
2023-05-08T08:36:41.717Z,23.16
2023-05-08T08:39:10.932Z,23.42
2023-05-08T08:41:42.311Z,23.68
2023-05-08T08:44:09.303Z,23.83
2023-05-08T08:46:36.187Z,23.95
2023-05-08T08:49:04.318Z,24.04
2023-05-08T08:51:54.509Z,23.92
2023-05-08T08:54:23.726Z,24.11
2023-05-08T08:56:51.818Z,24.28
2023-05-08T08:59:18.848Z,24.56
2023-05-08T09:01:48.606Z,24.55
2023-05-08T09:04:16.982Z,24.65
2023-05-08T09:06:45.533Z,24.30
2023-05-08T09:09:13.503Z,24.30
2023-05-08T09:11:41.683Z,24.33
2023-05-08T09:14:09.788Z,24.25
2023-05-08T09:16:36.886Z,24.17
2023-05-08T09:19:04.726Z,24.18
2023-05-08T09:21:32.363Z,24.17
2023-05-08T09:24:00.970Z,24.40
2023-05-08T09:26:39.749Z,24.77
2023-05-08T09:29:17.425Z,24.71
2023-05-08T09:31:49.144Z,24.49
2023-05-08T09:34:27.248Z,24.41
2023-05-08T09:36:55.097Z,24.43
2023-05-08T09:39:25.693Z,24.32
2023-05-08T09:42:00.834Z,24.17
2023-05-08T09:44:28.125Z,24.40
2023-05-08T09:47:11.685Z,24.39
2023-05-08T09:49:40.771Z,24.37
2023-05-08T09:52:08.615Z,24.18
2023-05-08T09:54:35.695Z,24.08
2023-05-08T09:57:12.220Z,24.30
2023-05-08T09:59:39.056Z,24.29
2023-05-08T10:02:12.985Z,24.47
2023-05-08T10:04:40.045Z,24.64
2023-05-08T10:07:07.334Z,24.84
2023-05-08T10:09:46.805Z,24.74
2023-05-08T10:12:17.498Z,24.75
2023-05-08T10:14:46.773Z,24.64
2023-05-08T10:17:14.145Z,24.65
2023-05-08T10:19:41.173Z,24.48
2023-05-08T10:22:08.167Z,24.62
2023-05-08T10:24:35.330Z,24.86
2023-05-08T10:27:09.348Z,24.91
2023-05-08T10:29:52.553Z,24.85
2023-05-08T10:32:20.212Z,24.97
2023-05-08T10:34:50.500Z,24.97
2023-05-08T10:37:17.518Z,24.95
2023-05-08T10:39:44.890Z,24.99
2023-05-08T10:42:13.826Z,25.03
2023-05-08T10:44:40.926Z,25.09
2023-05-08T10:47:20.561Z,25.13
2023-05-08T10:50:12.238Z,25.21
2023-05-08T10:52:45.240Z,25.30
2023-05-08T10:55:17.773Z,25.20
2023-05-08T10:58:05.195Z,25.13
2023-05-08T11:00:34.207Z,25.25
2023-05-08T11:03:16.926Z,25.22
2023-05-08T11:05:51.507Z,25.18
2023-05-08T11:08:19.820Z,25.24
2023-05-08T11:10:52.462Z,25.17
2023-05-08T11:13:19.914Z,25.35
2023-05-08T11:15:50.928Z,25.25
2023-05-08T11:18:18.127Z,25.19
2023-05-08T11:21:05.376Z,25.31
2023-05-08T11:23:36.684Z,25.28
2023-05-08T11:26:12.843Z,25.29
2023-05-08T11:28:57.026Z,25.26
2023-05-08T11:31:24.315Z,25.05
2023-05-08T11:33:51.718Z,25.00
2023-05-08T11:36:23.366Z,24.99
2023-05-08T11:39:07.786Z,25.21
2023-05-08T11:41:34.970Z,25.23
2023-05-08T11:44:05.299Z,25.12
2023-05-08T11:46:42.289Z,25.15
2023-05-08T11:49:21.155Z,24.98
2023-05-08T11:51:55.524Z,24.83
2023-05-08T11:54:22.677Z,24.97
2023-05-08T11:56:50.377Z,24.91
2023-05-08T11:59:17.527Z,24.73
2023-05-08T12:01:50.881Z,24.69
2023-05-08T12:04:27.524Z,24.61
2023-05-08T12:06:57.582Z,24.58
2023-05-08T12:09:24.661Z,24.48
2023-05-08T12:11:56.227Z,24.37
2023-05-08T12:14:23.166Z,24.43
2023-05-08T12:16:51.361Z,24.37
2023-05-08T12:19:18.514Z,24.33
2023-05-08T12:21:49.243Z,24.35
2023-05-08T12:24:17.232Z,24.20
2023-05-08T12:26:44.276Z,24.17
2023-05-08T12:29:11.218Z,23.97
2023-05-08T12:31:38.130Z,23.85
2023-05-08T12:34:08.529Z,23.76
2023-05-08T12:36:36.367Z,23.61
2023-05-08T12:39:16.701Z,23.35
2023-05-08T12:41:50.547Z,23.42
2023-05-08T12:44:25.268Z,23.60
2023-05-08T12:46:55.994Z,23.51
2023-05-08T12:49:32.978Z,23.48
2023-05-08T12:52:13.327Z,23.63
2023-05-08T12:54:41.618Z,23.72
2023-05-08T12:57:12.859Z,23.52
2023-05-08T12:59:41.092Z,23.52
2023-05-08T13:02:18.582Z,23.60
2023-05-08T13:04:45.933Z,23.53
2023-05-08T13:07:13.057Z,23.35
2023-05-08T13:09:39.988Z,23.14
2023-05-08T13:12:07.430Z,23.26
2023-05-08T13:14:34.313Z,23.30
2023-05-08T13:17:01.773Z,23.43
2023-05-08T13:19:29.037Z,23.31
2023-05-08T13:21:55.857Z,23.41
2023-05-08T13:24:22.833Z,23.50
2023-05-08T13:26:49.937Z,23.55
2023-05-08T13:29:17.449Z,23.60
2023-05-08T13:31:44.322Z,23.31
2023-05-08T13:34:11.460Z,23.33
2023-05-08T13:36:38.272Z,23.38
2023-05-08T13:39:05.076Z,23.58
2023-05-08T13:41:31.867Z,23.71
2023-05-08T13:43:58.757Z,23.63
2023-05-08T13:46:25.767Z,23.59
2023-05-08T13:48:52.698Z,23.63
2023-05-08T13:51:19.705Z,23.71
2023-05-08T13:53:46.662Z,23.91
2023-05-08T13:56:13.921Z,24.27
2023-05-08T13:58:41.047Z,24.35
2023-05-08T14:01:21.737Z,24.32
2023-05-08T14:03:49.472Z,24.33
2023-05-08T14:06:16.358Z,24.21
2023-05-08T14:11:30.620Z,24.27
2023-05-08T14:12:42.932Z,24.10
2023-05-08T14:13:58.015Z,24.32
2023-05-08T14:16:25.086Z,24.30
2023-05-08T14:18:52.186Z,24.31
2023-05-08T14:21:19.143Z,24.34
2023-05-08T14:23:46.093Z,24.31
2023-05-08T14:26:12.958Z,24.42
2023-05-08T14:28:39.968Z,24.49
2023-05-08T14:31:06.989Z,24.53
2023-05-08T14:33:34.513Z,24.54
2023-05-08T14:36:01.485Z,24.40
2023-05-08T14:38:28.525Z,24.58
2023-05-08T14:40:55.571Z,24.64
2023-05-08T14:43:22.632Z,24.38
2023-05-08T14:45:49.819Z,24.22
2023-05-08T14:48:16.849Z,24.17
2023-05-08T14:50:43.723Z,24.21
2023-05-08T14:53:10.717Z,24.18
2023-05-08T14:55:38.159Z,24.14
2023-05-08T14:58:05.460Z,24.42
2023-05-08T15:00:32.515Z,24.55
2023-05-08T15:02:59.425Z,24.61
2023-05-08T15:05:26.664Z,24.55
2023-05-08T15:07:54.305Z,24.63
2023-05-08T15:10:21.342Z,24.62
2023-05-08T15:12:48.253Z,24.71
2023-05-08T15:15:15.356Z,24.80
2023-05-08T15:17:42.414Z,24.97
2023-05-08T15:20:10.081Z,24.95
2023-05-08T15:22:37.424Z,24.84
2023-05-08T15:25:05.543Z,24.51
2023-05-08T15:27:32.594Z,24.15
2023-05-08T15:29:59.606Z,24.12
2023-05-08T15:32:26.596Z,24.27
2023-05-08T15:34:53.554Z,24.41
2023-05-08T15:37:20.574Z,24.46
2023-05-08T15:39:47.513Z,24.34
2023-05-08T15:42:14.382Z,24.26
2023-05-08T15:44:54.484Z,24.13
2023-05-08T15:47:23.433Z,24.14
2023-05-08T15:49:51.154Z,24.24
2023-05-08T15:52:19.984Z,24.39
2023-05-08T15:54:47.444Z,24.69
2023-05-08T15:57:14.358Z,24.88
2023-05-08T15:59:41.445Z,25.01
2023-05-08T16:02:08.567Z,25.19
2023-05-08T16:04:36.170Z,25.18
2023-05-08T16:07:03.228Z,25.36
2023-05-08T16:09:31.313Z,25.54
2023-05-08T16:11:58.303Z,25.72
2023-05-08T16:14:25.304Z,25.72
2023-05-08T16:16:52.381Z,25.68
2023-05-08T16:19:19.278Z,25.72
2023-05-08T16:21:47.896Z,25.73
2023-05-08T16:24:14.850Z,25.95
2023-05-08T16:26:41.732Z,26.17
2023-05-08T16:29:08.667Z,26.40
2023-05-08T16:31:35.685Z,26.68
2023-05-08T16:34:02.752Z,26.83
2023-05-08T16:36:29.631Z,26.69
2023-05-08T16:38:56.484Z,26.57
2023-05-08T16:41:24.741Z,26.52
2023-05-08T16:43:51.720Z,26.42
2023-05-08T16:46:29.239Z,26.46
2023-05-08T16:48:57.255Z,26.53
2023-05-08T16:51:24.818Z,26.86
2023-05-08T16:53:51.771Z,27.06
2023-05-08T16:56:18.824Z,27.18
2023-05-08T16:58:46.001Z,27.14
2023-05-08T17:01:13.378Z,27.24
2023-05-08T17:03:43.282Z,27.40
2023-05-08T17:06:10.414Z,27.36
2023-05-08T17:08:37.263Z,27.36
2023-05-08T17:11:04.619Z,27.43
2023-05-08T17:13:31.746Z,27.50
2023-05-08T17:15:58.699Z,27.52
2023-05-08T17:18:25.684Z,27.76
2023-05-08T17:20:52.742Z,27.84
2023-05-08T17:23:19.684Z,27.94
2023-05-08T17:25:46.639Z,27.85
2023-05-08T17:28:13.583Z,27.94
2023-05-08T17:30:40.740Z,28.08
2023-05-08T17:33:07.657Z,28.23
2023-05-08T17:35:34.775Z,28.29
2023-05-08T17:38:01.839Z,28.52
2023-05-08T17:40:29.158Z,28.70
2023-05-08T17:42:56.429Z,28.85
2023-05-08T17:45:23.634Z,29.03
2023-05-08T17:47:50.625Z,28.93
2023-05-08T17:50:17.491Z,29.17
2023-05-08T17:52:44.499Z,29.42
2023-05-08T17:55:11.593Z,29.54
2023-05-08T17:57:38.588Z,29.56
2023-05-08T18:00:06.708Z,29.55
2023-05-08T18:02:35.593Z,29.56
2023-05-08T18:05:02.564Z,29.73
2023-05-08T18:07:29.400Z,29.86
2023-05-08T18:09:56.499Z,29.94
2023-05-08T18:12:25.972Z,29.86
2023-05-08T18:14:52.934Z,29.89
2023-05-08T18:17:21.451Z,30.01
2023-05-08T18:19:48.688Z,29.87
2023-05-08T18:22:16.848Z,29.83
2023-05-08T18:24:46.261Z,29.81
2023-05-08T18:27:13.514Z,29.97
2023-05-08T18:29:40.871Z,30.15
2023-05-08T18:32:07.811Z,30.29
2023-05-08T18:34:34.983Z,30.42
2023-05-08T18:37:01.792Z,30.36
2023-05-08T18:39:28.787Z,30.42
2023-05-08T18:41:55.650Z,30.43
2023-05-08T18:44:22.679Z,30.39
2023-05-08T18:46:49.877Z,30.43
2023-05-08T18:49:17.202Z,30.22
2023-05-08T18:51:44.146Z,30.24
2023-05-08T18:54:10.992Z,30.09
2023-05-08T18:56:37.966Z,29.91
2023-05-08T18:59:05.002Z,29.89
2023-05-08T19:01:34.718Z,29.89
2023-05-08T19:04:02.940Z,29.88
2023-05-08T19:06:30.050Z,29.90
2023-05-08T19:08:57.051Z,29.76
2023-05-08T19:11:23.930Z,29.72
2023-05-08T19:13:51.984Z,29.74
2023-05-08T19:16:19.102Z,29.74
2023-05-08T19:18:45.941Z,29.81
2023-05-08T19:21:12.886Z,30.00
2023-05-08T19:23:39.732Z,29.92
2023-05-08T19:26:07.006Z,29.93
2023-05-08T19:28:34.972Z,29.85
2023-05-08T19:31:01.894Z,29.93
2023-05-08T19:33:28.710Z,30.11
2023-05-08T19:35:55.498Z,30.25
2023-05-08T19:38:22.298Z,30.26
2023-05-08T19:40:57.132Z,30.33
2023-05-08T19:43:26.417Z,30.45
2023-05-08T19:45:53.492Z,30.53
2023-05-08T19:48:20.567Z,30.66
2023-05-08T19:50:47.578Z,30.68
2023-05-08T19:53:14.506Z,30.94
2023-05-08T19:55:41.914Z,31.13
2023-05-08T19:58:08.746Z,31.22
2023-05-08T20:00:35.737Z,31.31
2023-05-08T20:03:02.893Z,31.41
2023-05-08T20:05:29.938Z,31.72
2023-05-08T20:07:56.826Z,31.76
2023-05-08T20:10:23.983Z,32.00
2023-05-08T20:12:50.909Z,31.92
2023-05-08T20:15:17.986Z,32.20
2023-05-08T20:17:45.190Z,32.36
2023-05-08T20:20:13.074Z,32.41
2023-05-08T20:22:40.343Z,32.52
2023-05-08T20:25:07.527Z,32.55
2023-05-08T20:27:34.477Z,32.43
2023-05-08T20:30:01.428Z,32.34
2023-05-08T20:32:28.414Z,31.98
2023-05-08T20:34:55.541Z,31.46
2023-05-08T20:37:22.392Z,31.29
2023-05-08T20:39:49.341Z,31.13
2023-05-08T20:42:16.412Z,31.02
2023-05-08T20:44:43.343Z,30.92
2023-05-08T20:47:10.295Z,30.75
2023-05-08T20:49:37.863Z,30.70
2023-05-08T20:52:05.672Z,30.68
2023-05-08T20:54:32.597Z,30.64
2023-05-08T20:56:59.692Z,30.69
2023-05-08T20:59:26.703Z,30.64
2023-05-08T21:01:53.640Z,30.63
2023-05-08T21:04:20.538Z,30.63
2023-05-08T21:06:47.381Z,30.79
2023-05-08T21:09:14.388Z,30.93
2023-05-08T21:11:41.342Z,30.87
2023-05-08T21:14:08.193Z,30.87
2023-05-08T21:16:35.033Z,30.97
2023-05-08T21:19:02.093Z,31.10
2023-05-08T21:21:28.937Z,31.00
2023-05-08T21:23:55.996Z,31.00
2023-05-08T21:26:23.804Z,31.00
2023-05-08T21:28:52.710Z,31.14
2023-05-08T21:31:19.970Z,31.02
2023-05-08T21:33:47.287Z,31.04
2023-05-08T21:36:14.259Z,31.04
2023-05-08T21:38:41.471Z,31.07
2023-05-08T21:41:08.758Z,31.31
2023-05-08T21:43:36.168Z,31.58
2023-05-08T21:46:06.655Z,31.76
2023-05-08T21:48:34.211Z,31.92
2023-05-08T21:51:01.284Z,32.16
2023-05-08T21:53:28.314Z,32.37
2023-05-08T21:55:55.272Z,32.60
2023-05-08T21:58:22.117Z,32.84
2023-05-08T22:00:49.042Z,33.11
2023-05-08T22:03:16.188Z,33.07
2023-05-08T22:05:43.184Z,33.10
2023-05-08T22:08:10.226Z,33.17
2023-05-08T22:10:37.289Z,33.20
2023-05-08T22:13:04.687Z,33.27
2023-05-08T22:15:31.868Z,33.41
2023-05-08T22:17:59.883Z,33.52
2023-05-08T22:20:26.933Z,33.69
2023-05-08T22:22:53.954Z,33.89
2023-05-08T22:25:21.996Z,34.12
2023-05-08T22:27:49.214Z,34.23
2023-05-08T22:30:16.288Z,34.45
2023-05-08T22:32:43.356Z,34.52
2023-05-08T22:35:10.493Z,34.69
2023-05-08T22:37:37.525Z,34.78
2023-05-08T22:40:05.473Z,34.80
2023-05-08T22:42:32.348Z,34.67
2023-05-08T22:44:59.168Z,34.66
2023-05-08T22:47:26.213Z,34.79
2023-05-08T22:49:53.511Z,34.94
2023-05-08T22:52:20.565Z,35.06
2023-05-08T22:54:47.411Z,35.12
2023-05-08T22:57:14.447Z,35.21
2023-05-08T22:59:41.276Z,35.28
2023-05-08T23:02:08.262Z,35.33
2023-05-08T23:04:35.373Z,35.33
2023-05-08T23:07:02.594Z,35.38
2023-05-08T23:09:30.920Z,35.39
2023-05-08T23:11:58.019Z,35.52
2023-05-08T23:14:24.866Z,35.60
2023-05-08T23:16:51.844Z,35.71
2023-05-08T23:19:18.704Z,35.73
2023-05-08T23:21:45.714Z,35.83
2023-05-08T23:24:12.545Z,35.95
2023-05-08T23:26:41.946Z,36.06
2023-05-08T23:29:09.240Z,36.14
2023-05-08T23:31:36.412Z,36.28
2023-05-08T23:34:03.267Z,36.42
2023-05-08T23:36:30.285Z,36.45
2023-05-08T23:38:57.242Z,36.41
2023-05-08T23:41:24.508Z,36.43
2023-05-08T23:43:51.466Z,36.60
2023-05-08T23:46:18.308Z,36.60
2023-05-08T23:48:45.190Z,36.53
2023-05-08T23:51:12.305Z,36.50
2023-05-08T23:53:39.146Z,36.63
2023-05-08T23:56:06.480Z,36.66
2023-05-08T23:58:33.577Z,36.72
